Time;durP1;ratioP1;P1;durP2;ratioP2;P2;SDS_P1;SDS_P2;PMS_P1;PMS_P2;Temp;Humidity;BMP_temperature;BMP_pressure;BME280_temperature;BME280_humidity;BME280_pressure;Samples;Min_cycle;Max_cycle;Signal;HPM_P1;HPM_P2
2021/10/09 00:01:44;;;;;;;17.95;12.32;;;12.70;92.70;;;;;;5030998;28;20241;-68
2021/10/09 00:04:11;;;;;;;21.45;15.10;;;12.70;92.80;;;;;;5014028;28;20722;-68
2021/10/09 00:06:38;;;;;;;45.95;32.08;;;12.70;92.90;;;;;;5025216;28;20683;-65
2021/10/09 00:09:05;;;;;;;20.23;16.15;;;12.70;93.80;;;;;;5028036;28;20694;-63
2021/10/09 00:11:38;;;;;;;20.20;12.70;;;12.70;93.40;;;;;;5021113;28;20621;-64
2021/10/09 00:14:05;;;;;;;22.42;16.65;;;12.70;93.10;;;;;;5031254;28;20228;-68
2021/10/09 00:16:36;;;;;;;13.60;11.35;;;12.60;93.40;;;;;;5027255;28;20309;-65
2021/10/09 00:19:04;;;;;;;18.35;11.93;;;12.60;93.10;;;;;;5018957;28;20349;-67
2021/10/09 00:21:32;;;;;;;106.68;85.47;;;12.50;92.90;;;;;;5022918;28;20690;-67
2021/10/09 00:24:00;;;;;;;51.30;35.65;;;12.50;93.50;;;;;;5027011;28;20232;-63
2021/10/09 00:26:26;;;;;;;21.83;15.05;;;12.60;93.10;;;;;;5025769;28;20221;-63
2021/10/09 00:28:53;;;;;;;37.25;27.73;;;12.60;92.90;;;;;;5024149;28;20243;-68
2021/10/09 00:31:20;;;;;;;306.45;222.43;;;12.60;93.00;;;;;;5012574;28;20221;-68
2021/10/09 00:33:49;;;;;;;24.30;19.00;;;12.70;96.60;;;;;;5013099;28;20288;-68
2021/10/09 00:36:15;;;;;;;58.33;41.92;;;12.80;94.80;;;;;;5025640;28;20233;-68
2021/10/09 00:38:42;;;;;;;24.60;16.27;;;12.90;94.60;;;;;;5012883;28;20240;-68
2021/10/09 00:41:09;;;;;;;34.53;14.20;;;12.90;93.10;;;;;;5027930;28;20743;-68
2021/10/09 00:43:37;;;;;;;13.82;12.02;;;12.90;92.70;;;;;;5013674;28;20323;-68
2021/10/09 00:46:04;;;;;;;16.27;12.80;;;12.90;92.60;;;;;;5011660;28;20226;-68
2021/10/09 00:48:34;;;;;;;18.42;11.68;;;12.70;92.50;;;;;;5020624;28;20238;-68
2021/10/09 00:51:04;;;;;;;73.47;52.22;;;12.70;92.50;;;;;;5015390;28;20224;-68
2021/10/09 00:53:33;;;;;;;19.13;16.05;;;12.60;93.80;;;;;;5021844;28;20242;-69
2021/10/09 00:56:02;;;;;;;15.73;13.40;;;12.60;94.10;;;;;;5014585;28;20252;-69
2021/10/09 00:58:29;;;;;;;17.48;12.00;;;12.60;93.30;;;;;;5023166;28;20302;-68
2021/10/09 01:00:57;;;;;;;14.27;10.55;;;12.50;92.80;;;;;;5016579;28;20240;-68
2021/10/09 01:03:25;;;;;;;17.63;12.35;;;12.40;92.90;;;;;;5014689;28;20227;-68
2021/10/09 01:05:52;;;;;;;16.70;11.90;;;12.40;92.90;;;;;;5022736;28;20225;-68
2021/10/09 01:08:20;;;;;;;19.33;14.07;;;12.40;92.80;;;;;;5020005;28;20245;-68
2021/10/09 01:10:47;;;;;;;20.38;13.43;;;12.30;92.80;;;;;;5022521;28;20231;-68
2021/10/09 01:13:14;;;;;;;19.45;12.50;;;12.20;92.90;;;;;;5024281;28;20576;-68
2021/10/09 01:15:44;;;;;;;21.45;15.07;;;12.20;92.90;;;;;;5026746;28;20232;-68
2021/10/09 01:18:12;;;;;;;21.75;14.25;;;12.10;92.90;;;;;;5018593;28;20240;-67
2021/10/09 01:20:48;;;;;;;24.60;15.05;;;12.00;93.00;;;;;;5027415;28;20228;-68
2021/10/09 01:23:16;;;;;;;17.88;13.95;;;11.90;93.10;;;;;;5029667;28;20233;-68
2021/10/09 01:25:43;;;;;;;20.23;11.90;;;11.80;93.30;;;;;;5031019;28;20221;-66
2021/10/09 01:28:10;;;;;;;16.02;11.70;;;11.80;93.40;;;;;;5029049;28;20232;-68
2021/10/09 01:30:37;;;;;;;21.83;16.35;;;11.80;93.50;;;;;;5030565;28;20235;-68
2021/10/09 01:33:05;;;;;;;20.27;15.50;;;11.80;93.50;;;;;;5022428;28;20241;-68
2021/10/09 01:35:32;;;;;;;22.95;14.82;;;11.70;93.40;;;;;;5030060;28;20224;-68
2021/10/09 01:38:00;;;;;;;28.45;18.63;;;11.70;93.50;;;;;;5016326;28;20222;-68
2021/10/09 01:40:27;;;;;;;23.25;15.13;;;11.70;93.50;;;;;;5015654;28;21426;-68
2021/10/09 01:42:54;;;;;;;24.50;14.70;;;11.70;93.50;;;;;;5016163;28;20227;-68
2021/10/09 01:45:20;;;;;;;17.63;14.25;;;11.70;93.60;;;;;;5015956;28;20243;-68
2021/10/09 01:47:47;;;;;;;23.55;19.17;;;11.60;93.50;;;;;;5035836;28;20230;-68
2021/10/09 01:50:15;;;;;;;19.70;12.63;;;11.60;93.50;;;;;;5028243;28;20255;-68
2021/10/09 01:52:42;;;;;;;83.03;59.38;;;11.60;93.50;;;;;;5026288;28;20701;-68
2021/10/09 01:55:10;;;;;;;23.27;20.02;;;11.60;94.80;;;;;;5021704;28;20559;-68
2021/10/09 01:57:41;;;;;;;27.67;20.10;;;11.60;95.20;;;;;;5030236;28;20239;-68
2021/10/09 02:00:09;;;;;;;30.23;21.65;;;11.60;94.40;;;;;;5029983;28;20234;-68
2021/10/09 02:02:36;;;;;;;18.25;14.82;;;11.60;94.10;;;;;;5015993;28;20235;-66
2021/10/09 02:05:03;;;;;;;17.17;12.40;;;11.60;93.70;;;;;;5015818;28;20239;-66
2021/10/09 02:07:31;;;;;;;18.17;14.25;;;11.50;93.60;;;;;;5025996;28;20325;-67
2021/10/09 02:09:58;;;;;;;23.70;16.33;;;11.60;93.70;;;;;;5024784;28;20312;-68
2021/10/09 02:12:27;;;;;;;31.30;20.90;;;11.60;93.70;;;;;;5015201;28;20719;-67
2021/10/09 02:14:58;;;;;;;36.70;26.35;;;11.50;93.50;;;;;;5031690;28;20305;-69
2021/10/09 02:17:57;;;;;;;32.95;17.67;;;11.50;93.60;;;;;;5035064;28;20232;-69
2021/10/09 02:26:07;;;;;;;24.77;15.85;;;11.50;93.80;;;;;;4969830;28;20233;-67
2021/10/09 02:28:35;;;;;;;20.77;15.00;;;11.50;93.70;;;;;;5007818;28;20708;-66
2021/10/09 02:31:02;;;;;;;19.48;14.18;;;11.50;93.80;;;;;;5035187;28;20228;-66
2021/10/09 02:33:29;;;;;;;21.52;13.57;;;11.50;93.40;;;;;;5034497;28;20227;-66
2021/10/09 02:35:56;;;;;;;15.82;11.90;;;11.50;93.40;;;;;;5035089;28;20304;-69
2021/10/09 02:38:23;;;;;;;21.58;15.75;;;11.50;93.30;;;;;;5034446;28;20326;-66
2021/10/09 02:40:49;;;;;;;27.27;20.02;;;11.50;93.40;;;;;;5034876;28;20232;-67
2021/10/09 02:43:17;;;;;;;26.05;20.02;;;11.50;93.50;;;;;;5034333;28;20245;-66
2021/10/09 02:45:45;;;;;;;25.48;17.00;;;11.40;93.30;;;;;;5034898;28;20228;-66
2021/10/09 02:48:15;;;;;;;25.50;17.83;;;11.40;93.30;;;;;;5034484;28;20231;-66
2021/10/09 02:50:43;;;;;;;28.85;19.15;;;11.40;93.50;;;;;;5029259;28;20224;-66
2021/10/09 02:53:10;;;;;;;23.92;17.55;;;11.40;93.60;;;;;;5019973;28;20225;-68
2021/10/09 02:55:36;;;;;;;19.52;15.45;;;11.30;93.60;;;;;;5014761;28;20228;-68
2021/10/09 02:58:04;;;;;;;19.17;15.52;;;11.30;93.60;;;;;;5019249;28;20228;-68
2021/10/09 03:00:31;;;;;;;21.80;17.73;;;11.30;93.60;;;;;;5028698;28;20228;-68
2021/10/09 03:02:59;;;;;;;21.88;15.85;;;11.20;93.70;;;;;;5014846;28;20227;-68
2021/10/09 03:05:27;;;;;;;27.08;19.63;;;11.20;93.80;;;;;;5014339;28;20235;-69
2021/10/09 03:07:53;;;;;;;40.67;20.67;;;11.20;94.10;;;;;;5014783;28;20683;-69
2021/10/09 03:10:21;;;;;;;20.52;17.20;;;11.20;93.90;;;;;;5014186;28;20232;-68
2021/10/09 03:12:48;;;;;;;28.20;20.33;;;11.10;93.80;;;;;;5014803;28;20225;-68
2021/10/09 03:15:15;;;;;;;29.67;20.95;;;11.10;93.90;;;;;;5032670;28;20228;-68
2021/10/09 03:17:42;;;;;;;25.67;18.30;;;11.20;96.20;;;;;;5034453;28;20223;-68
2021/10/09 03:20:12;;;;;;;35.90;28.10;;;11.20;94.50;;;;;;5034036;28;20684;-66
2021/10/09 03:22:40;;;;;;;25.50;18.15;;;11.20;94.30;;;;;;5034350;28;20963;-67
2021/10/09 03:25:08;;;;;;;27.13;22.08;;;11.20;94.00;;;;;;5034170;28;20255;-67
2021/10/09 03:27:35;;;;;;;21.33;15.55;;;11.10;94.10;;;;;;5014339;28;20561;-67
2021/10/09 03:30:03;;;;;;;17.90;14.07;;;11.10;94.00;;;;;;5014303;28;20227;-67
2021/10/09 03:32:30;;;;;;;23.75;18.13;;;11.10;94.00;;;;;;5013838;28;20231;-67
2021/10/09 03:34:57;;;;;;;23.05;16.02;;;11.00;93.60;;;;;;5014161;28;20243;-67
2021/10/09 03:37:25;;;;;;;22.75;16.42;;;10.90;93.80;;;;;;5013571;28;20695;-67
2021/10/09 03:39:54;;;;;;;28.75;14.75;;;10.90;94.00;;;;;;5014057;28;20624;-67
2021/10/09 03:42:23;;;;;;;19.85;16.33;;;10.80;93.80;;;;;;5013579;28;20227;-67
2021/10/09 03:44:54;;;;;;;19.67;14.45;;;10.80;93.90;;;;;;5022162;28;20233;-67
2021/10/09 03:47:24;;;;;;;23.05;15.93;;;10.80;93.80;;;;;;5033545;28;20230;-67
2021/10/09 03:49:54;;;;;;;35.60;26.50;;;10.80;93.80;;;;;;5033240;28;20261;-67
2021/10/09 03:52:38;;;;;;;21.77;16.85;;;10.80;95.00;;;;;;5021148;28;20244;-67
2021/10/09 03:55:10;;;;;;;23.48;13.80;;;10.80;94.20;;;;;;5033554;28;20215;-67
2021/10/09 03:57:37;;;;;;;27.02;14.60;;;10.80;93.60;;;;;;5032812;28;20252;-67
2021/10/09 04:00:05;;;;;;;19.88;13.95;;;10.70;93.80;;;;;;5031474;28;20231;-67
2021/10/09 04:02:32;;;;;;;20.88;15.45;;;10.70;93.70;;;;;;5013259;28;20235;-67
2021/10/09 04:04:59;;;;;;;21.35;14.77;;;10.70;93.90;;;;;;5013934;28;20570;-67
2021/10/09 04:07:26;;;;;;;19.45;14.43;;;10.70;93.90;;;;;;5013245;28;20231;-67
2021/10/09 04:09:53;;;;;;;17.95;15.10;;;10.70;93.90;;;;;;5013660;28;20236;-67
2021/10/09 04:12:21;;;;;;;20.77;14.40;;;10.70;94.00;;;;;;5013152;28;20230;-67
2021/10/09 04:14:48;;;;;;;17.58;13.35;;;10.80;94.10;;;;;;5028327;28;20221;-67
2021/10/09 04:17:15;;;;;;;27.92;14.55;;;10.70;94.00;;;;;;5031914;28;20229;-67
2021/10/09 04:19:42;;;;;;;24.10;17.38;;;10.70;94.10;;;;;;5032539;28;20728;-67
2021/10/09 04:22:09;;;;;;;21.23;16.52;;;10.70;94.00;;;;;;5033047;28;20248;-67
2021/10/09 04:24:36;;;;;;;23.10;17.85;;;10.70;94.10;;;;;;5032504;28;20689;-67
2021/10/09 04:27:03;;;;;;;22.42;17.10;;;10.80;94.10;;;;;;5033023;28;20683;-66
2021/10/09 04:29:31;;;;;;;20.25;14.50;;;10.80;94.00;;;;;;5032577;28;20238;-67
2021/10/09 04:31:58;;;;;;;16.17;13.30;;;10.80;93.90;;;;;;5033027;28;20688;-66
2021/10/09 04:34:27;;;;;;;22.67;15.80;;;10.80;93.90;;;;;;5032556;28;20261;-67
2021/10/09 04:36:55;;;;;;;18.85;13.98;;;10.70;94.00;;;;;;5032813;28;20217;-67
2021/10/09 04:39:22;;;;;;;21.67;16.48;;;10.70;93.90;;;;;;5032630;28;20229;-67
2021/10/09 04:41:49;;;;;;;17.77;14.70;;;10.70;94.00;;;;;;5032752;28;20235;-67
2021/10/09 04:44:16;;;;;;;23.42;14.75;;;10.70;94.10;;;;;;5032586;28;20235;-67
2021/10/09 04:46:44;;;;;;;21.45;13.35;;;10.60;93.90;;;;;;5031995;28;20225;-67
2021/10/09 04:49:11;;;;;;;20.98;12.55;;;10.70;94.00;;;;;;5032716;28;20233;-67
2021/10/09 04:51:38;;;;;;;19.65;14.65;;;10.60;93.90;;;;;;5025172;28;20558;-67
2021/10/09 04:54:05;;;;;;;23.50;15.50;;;10.60;93.90;;;;;;5019389;28;20689;-67
2021/10/09 04:56:32;;;;;;;19.52;13.25;;;10.60;93.90;;;;;;5016404;28;20233;-67
2021/10/09 04:58:59;;;;;;;25.92;14.48;;;10.60;94.10;;;;;;5020722;28;20700;-67
2021/10/09 05:01:26;;;;;;;17.77;13.27;;;10.60;94.10;;;;;;5012451;28;20254;-67
2021/10/09 05:03:54;;;;;;;18.42;13.15;;;10.60;94.10;;;;;;5013059;28;20236;-67
2021/10/09 05:06:21;;;;;;;17.25;12.25;;;10.50;94.20;;;;;;5012882;28;20236;-67
2021/10/09 05:08:48;;;;;;;19.52;14.60;;;10.50;94.20;;;;;;5012492;28;20981;-67
2021/10/09 05:11:18;;;;;;;15.05;13.45;;;10.50;94.20;;;;;;5012898;28;20249;-67
2021/10/09 05:13:45;;;;;;;118.05;84.07;;;10.50;94.20;;;;;;5011924;28;20221;-67
2021/10/09 05:16:11;;;;;;;24.40;18.45;;;10.60;99.90;;;;;;5011453;28;20219;-67
2021/10/09 05:18:38;;;;;;;20.17;15.13;;;10.70;97.80;;;;;;5011951;28;20573;-67
2021/10/09 05:21:07;;;;;;;18.38;13.98;;;10.80;95.50;;;;;;5012661;28;20235;-67
2021/10/09 05:23:34;;;;;;;21.27;13.38;;;10.80;94.70;;;;;;5012339;28;20224;-67
2021/10/09 05:26:01;;;;;;;16.70;12.50;;;10.70;94.20;;;;;;5012682;28;20225;-67
2021/10/09 05:28:35;;;;;;;15.00;12.70;;;10.70;93.90;;;;;;5012337;28;20305;-67
2021/10/09 05:31:02;;;;;;;21.63;13.35;;;10.70;93.90;;;;;;5012640;28;20239;-67
2021/10/09 05:33:38;;;;;;;24.08;15.35;;;10.60;93.70;;;;;;5012238;28;20315;-67
2021/10/09 05:36:07;;;;;;;18.58;13.20;;;10.60;93.80;;;;;;5012545;28;20222;-66
2021/10/09 05:38:35;;;;;;;17.58;13.93;;;10.60;93.70;;;;;;5012056;28;20237;-67
2021/10/09 05:41:02;;;;;;;16.15;13.00;;;10.60;93.60;;;;;;5012603;28;20587;-67
2021/10/09 05:43:30;;;;;;;21.13;13.68;;;10.60;93.50;;;;;;5012132;28;20747;-67
2021/10/09 05:45:57;;;;;;;15.88;13.20;;;10.60;93.70;;;;;;5012774;28;20599;-67
2021/10/09 05:48:24;;;;;;;18.67;13.60;;;10.60;93.60;;;;;;5012241;28;20233;-67
2021/10/09 05:50:56;;;;;;;19.55;12.95;;;10.60;93.50;;;;;;5012249;28;21036;-68
2021/10/09 05:53:45;;;;;;;17.95;13.50;;;10.60;93.40;;;;;;5012596;28;20222;-68
2021/10/09 05:56:18;;;;;;;18.27;12.90;;;10.60;93.50;;;;;;5012278;28;20312;-68
2021/10/09 05:58:58;;;;;;;15.90;13.45;;;10.60;93.50;;;;;;5014077;28;20231;-68
2021/10/09 06:37:43;;;;;;;19.05;12.73;;;10.20;93.00;;;;;;5015110;28;20224;-68
2021/10/09 06:46:03;;;;;;;17.35;13.27;;;10.30;93.40;;;;;;5004657;28;20265;-68
2021/10/09 06:59:30;;;;;;;18.42;12.90;;;10.60;92.50;;;;;;5014991;28;20333;-68
2021/10/09 07:01:57;;;;;;;17.13;11.90;;;10.60;92.50;;;;;;5014604;28;20238;-68
2021/10/09 07:04:24;;;;;;;19.25;12.50;;;10.60;92.70;;;;;;5014847;28;20250;-68
2021/10/09 07:06:52;;;;;;;17.15;11.70;;;10.60;92.20;;;;;;5014315;28;20225;-68
2021/10/09 07:09:19;;;;;;;18.15;13.52;;;10.70;92.40;;;;;;5014211;28;20280;-68
2021/10/09 07:11:46;;;;;;;18.13;11.82;;;10.80;92.20;;;;;;5014208;28;20236;-68
2021/10/09 07:14:13;;;;;;;14.65;11.07;;;10.80;92.10;;;;;;5013931;28;20230;-68
2021/10/09 07:16:41;;;;;;;12.77;11.45;;;10.80;91.90;;;;;;5014399;28;20240;-68
2021/10/09 07:19:08;;;;;;;16.23;11.73;;;10.90;92.20;;;;;;5014620;28;20595;-68
2021/10/09 07:21:34;;;;;;;14.18;11.65;;;10.90;91.70;;;;;;5013977;28;20227;-68
2021/10/09 07:24:01;;;;;;;14.98;11.15;;;11.00;92.00;;;;;;5014606;28;20228;-68
2021/10/09 07:26:28;;;;;;;19.58;11.95;;;10.90;91.30;;;;;;5014533;28;20274;-69
2021/10/09 07:28:55;;;;;;;16.10;12.32;;;10.90;91.70;;;;;;5013933;28;20246;-68
2021/10/09 07:31:22;;;;;;;14.38;12.57;;;11.00;92.00;;;;;;5014082;28;20246;-68
2021/10/09 07:33:50;;;;;;;14.35;12.27;;;11.00;91.60;;;;;;5013714;28;20242;-68
2021/10/09 07:36:17;;;;;;;15.20;11.07;;;11.10;91.50;;;;;;5014422;28;20228;-68
2021/10/09 07:38:45;;;;;;;13.52;10.77;;;11.20;91.40;;;;;;5013732;28;20234;-68
2021/10/09 07:41:12;;;;;;;13.82;10.85;;;11.30;91.20;;;;;;5014077;28;20330;-68
2021/10/09 07:43:39;;;;;;;13.30;11.10;;;11.30;91.10;;;;;;5013856;28;20569;-68
2021/10/09 07:46:06;;;;;;;18.80;11.18;;;11.40;91.00;;;;;;5014242;28;20578;-68
2021/10/09 07:48:33;;;;;;;17.85;12.75;;;11.50;90.80;;;;;;5014034;28;20236;-68
2021/10/09 07:51:01;;;;;;;15.63;11.68;;;11.60;90.80;;;;;;5013633;28;20234;-68
2021/10/09 07:53:28;;;;;;;14.68;10.85;;;11.70;90.70;;;;;;5014012;28;20645;-68
2021/10/09 07:55:54;;;;;;;11.45;9.90;;;11.80;90.50;;;;;;5013261;28;20248;-68
2021/10/09 07:58:21;;;;;;;13.30;10.55;;;11.80;90.30;;;;;;5013905;28;20229;-69
2021/10/09 08:00:48;;;;;;;15.27;12.45;;;11.90;90.20;;;;;;5013434;28;20610;-68
2021/10/09 08:03:15;;;;;;;15.60;12.27;;;12.00;89.20;;;;;;5013607;28;20225;-67
2021/10/09 08:05:43;;;;;;;15.30;10.10;;;12.00;88.90;;;;;;5013458;28;20224;-67
2021/10/09 08:08:11;;;;;;;12.75;10.88;;;12.10;88.90;;;;;;5013883;28;20240;-66
2021/10/09 08:10:38;;;;;;;14.65;11.88;;;12.20;88.60;;;;;;5013020;28;20228;-67
2021/10/09 08:13:05;;;;;;;16.02;11.02;;;12.20;87.80;;;;;;5013622;28;20237;-67
2021/10/09 08:15:32;;;;;;;16.35;10.27;;;12.20;87.40;;;;;;5013545;28;20234;-67
2021/10/09 08:17:58;;;;;;;17.10;12.68;;;12.20;87.10;;;;;;5013179;28;20312;-67
2021/10/09 08:20:25;;;;;;;12.73;10.18;;;12.30;87.40;;;;;;5012876;28;20221;-68
2021/10/09 08:22:59;;;;;;;13.93;9.93;;;12.30;87.20;;;;;;5012758;28;20231;-68
2021/10/09 08:36:37;;;;;;;13.13;9.23;;;12.60;85.60;;;;;;5000334;28;20218;-68
2021/10/09 08:39:04;;;;;;;20.00;10.23;;;12.70;84.90;;;;;;5013015;28;20237;-67
2021/10/09 08:41:33;;;;;;;18.35;9.77;;;12.80;85.70;;;;;;5012709;28;20311;-68
2021/10/09 08:43:59;;;;;;;16.42;9.68;;;12.80;84.80;;;;;;5013236;28;20233;-68
2021/10/09 08:46:26;;;;;;;10.75;8.30;;;12.90;84.00;;;;;;5013131;28;20230;-68
2021/10/09 08:48:54;;;;;;;10.55;8.93;;;12.90;83.10;;;;;;5012556;28;20229;-68
2021/10/09 08:51:22;;;;;;;10.57;8.80;;;13.00;83.30;;;;;;5013053;28;20228;-67
2021/10/09 08:53:50;;;;;;;10.10;8.63;;;13.00;83.60;;;;;;5012597;28;20247;-67
2021/10/09 08:56:33;;;;;;;10.40;7.88;;;13.20;83.40;;;;;;5012797;28;20245;-67
2021/10/09 08:59:09;;;;;;;10.27;7.95;;;13.20;83.10;;;;;;5012528;28;20631;-67
2021/10/09 09:40:22;;;;;;;12.18;6.88;;;14.10;77.60;;;;;;4995312;28;20225;-67
2021/10/09 09:42:50;;;;;;;7.10;6.38;;;14.20;76.70;;;;;;5016283;28;20240;-68
2021/10/09 09:45:22;;;;;;;7.77;6.97;;;14.20;75.40;;;;;;5015827;28;20232;-66
2021/10/09 09:47:49;;;;;;;8.03;6.60;;;14.30;76.30;;;;;;5016530;28;20457;-68
2021/10/09 09:50:16;;;;;;;14.07;6.90;;;14.40;77.20;;;;;;5015735;28;20473;-67
2021/10/09 09:52:45;;;;;;;13.98;7.00;;;14.40;75.90;;;;;;5016319;28;20819;-68
2021/10/09 09:55:16;;;;;;;20.63;8.53;;;14.50;74.90;;;;;;5016343;28;20226;-68
2021/10/09 09:57:44;;;;;;;13.90;8.97;;;14.60;75.90;;;;;;5015866;28;21006;-69
2021/10/09 10:00:13;;;;;;;15.33;7.33;;;14.60;75.30;;;;;;5015970;28;20810;-67
2021/10/09 10:02:49;;;;;;;13.20;7.43;;;14.70;76.00;;;;;;5015358;28;20965;-68
2021/10/09 10:05:16;;;;;;;8.67;7.20;;;14.70;77.80;;;;;;5015925;28;20468;-67
2021/10/09 10:07:43;;;;;;;8.20;5.87;;;14.80;75.80;;;;;;5015411;28;20456;-66
2021/10/09 10:10:11;;;;;;;10.37;6.50;;;14.80;75.40;;;;;;5015484;28;20479;-67
2021/10/09 10:12:39;;;;;;;6.97;5.90;;;14.90;76.30;;;;;;5015559;28;20468;-67
2021/10/09 10:15:09;;;;;;;9.17;6.60;;;15.00;74.50;;;;;;5015824;28;20475;-67
2021/10/09 10:17:36;;;;;;;13.50;6.07;;;15.00;73.30;;;;;;5015181;28;20479;-67
2021/10/09 10:20:06;;;;;;;6.47;5.63;;;15.00;74.30;;;;;;5015591;28;20482;-68
2021/10/09 10:22:56;;;;;;;6.00;5.13;;;15.00;73.50;;;;;;5015082;28;20826;-68
2021/10/09 10:25:44;;;;;;;9.23;6.57;;;15.10;73.80;;;;;;5014730;28;20465;-68
2021/10/09 10:28:14;;;;;;;9.10;6.10;;;15.20;71.30;;;;;;5015355;28;20536;-68
2021/10/09 10:30:42;;;;;;;5.63;4.77;;;15.10;70.00;;;;;;5014987;28;20461;-68
2021/10/09 10:33:30;;;;;;;8.50;5.00;;;15.20;71.10;;;;;;5015404;28;20958;-68
2021/10/09 10:35:59;;;;;;;6.30;5.10;;;15.10;69.80;;;;;;5015929;28;20536;-68
2021/10/09 10:38:48;;;;;;;6.07;5.47;;;15.20;70.80;;;;;;5014941;28;20457;-68
2021/10/09 10:41:21;;;;;;;6.83;4.70;;;15.20;70.40;;;;;;5015039;28;20471;-68
2021/10/09 10:43:50;;;;;;;6.47;5.73;;;15.20;70.60;;;;;;5014558;28;20465;-68
2021/10/09 10:46:43;;;;;;;6.23;5.07;;;15.20;71.30;;;;;;5014723;28;20971;-68
2021/10/09 10:49:15;;;;;;;9.83;5.50;;;15.20;71.20;;;;;;5014719;28;20472;-66
2021/10/09 10:52:08;;;;;;;7.70;6.50;;;15.20;70.70;;;;;;5015086;28;20659;-68
2021/10/09 10:54:36;;;;;;;7.13;5.13;;;15.20;71.70;;;;;;5014622;28;20460;-67
2021/10/09 10:57:23;;;;;;;9.73;5.67;;;15.30;70.50;;;;;;5014933;28;20503;-67
2021/10/09 10:59:59;;;;;;;8.30;5.57;;;15.30;71.10;;;;;;5015407;28;21050;-67
2021/10/09 11:02:29;;;;;;;6.03;5.40;;;15.30;71.20;;;;;;5015186;28;20558;-68
2021/10/09 11:04:57;;;;;;;9.57;6.27;;;15.40;71.90;;;;;;5014326;28;20475;-67
2021/10/09 11:07:31;;;;;;;6.23;5.63;;;15.50;71.60;;;;;;5014892;28;20473;-67
2021/10/09 11:10:04;;;;;;;8.33;5.47;;;15.50;71.30;;;;;;5014628;28;21599;-68
2021/10/09 11:12:32;;;;;;;6.17;5.57;;;15.50;71.50;;;;;;5014704;28;20461;-67
2021/10/09 11:15:09;;;;;;;8.73;6.30;;;15.50;71.20;;;;;;5014054;28;20563;-67
2021/10/09 11:17:37;;;;;;;10.80;7.00;;;15.50;72.20;;;;;;5014450;28;20779;-67
2021/10/09 11:20:07;;;;;;;16.23;7.80;;;15.60;71.90;;;;;;5014603;28;20464;-69
2021/10/09 11:22:44;;;;;;;7.47;6.47;;;15.60;72.00;;;;;;5014245;28;20465;-67
2021/10/09 11:25:22;;;;;;;8.10;6.13;;;15.70;72.00;;;;;;5014896;28;20475;-67
2021/10/09 11:27:49;;;;;;;7.93;6.57;;;15.70;71.70;;;;;;5014178;28;20456;-69
2021/10/09 11:30:15;;;;;;;10.93;7.30;;;15.80;71.90;;;;;;5014557;28;20469;-68
2021/10/09 11:32:44;;;;;;;6.37;5.50;;;15.80;71.50;;;;;;5014005;28;20486;-69
2021/10/09 11:35:14;;;;;;;8.83;5.80;;;15.80;79.00;;;;;;5014371;28;20966;-67
2021/10/09 11:37:51;;;;;;;13.67;6.00;;;16.00;79.10;;;;;;5031448;28;20471;-67
2021/10/09 11:40:32;;;;;;;7.07;5.80;;;16.10;75.20;;;;;;5033717;28;20495;-68
2021/10/09 11:43:08;;;;;;;7.10;5.90;;;16.20;73.10;;;;;;5033675;28;21007;-67
2021/10/09 11:45:41;;;;;;;10.00;6.00;;;16.20;73.80;;;;;;5033420;28;20475;-67
2021/10/09 11:53:52;;;;;;;11.23;6.30;;;16.30;71.70;;;;;;5033304;28;20471;-67
2021/10/09 11:56:20;;;;;;;7.17;5.50;;;16.30;72.00;;;;;;5033533;28;20472;-66
2021/10/09 11:58:54;;;;;;;7.30;5.80;;;16.20;71.40;;;;;;5033003;28;20460;-67
2021/10/09 12:01:33;;;;;;;5.70;5.20;;;16.20;71.30;;;;;;5033520;28;20538;-67
2021/10/09 12:04:17;;;;;;;7.80;5.47;;;16.30;71.70;;;;;;5032650;28;20518;-69
2021/10/09 12:06:46;;;;;;;9.80;4.87;;;16.30;72.50;;;;;;5032682;28;20470;-67
2021/10/09 12:09:15;;;;;;;9.27;5.07;;;16.40;71.70;;;;;;5033233;28;20468;-67
2021/10/09 12:11:43;;;;;;;4.50;4.10;;;16.40;69.00;;;;;;5032887;28;20468;-67
2021/10/09 12:14:11;;;;;;;4.53;4.13;;;16.40;69.00;;;;;;5033294;28;20954;-68
2021/10/09 12:16:40;;;;;;;7.80;4.60;;;16.40;66.10;;;;;;5032899;28;20467;-67
2021/10/09 12:19:08;;;;;;;7.87;5.23;;;16.50;66.20;;;;;;5032919;28;20476;-68
2021/10/09 12:21:38;;;;;;;6.43;5.03;;;16.50;66.90;;;;;;5033096;28;20464;-68
2021/10/09 12:24:17;;;;;;;5.50;5.00;;;16.50;67.00;;;;;;5032820;28;21267;-68
2021/10/09 12:26:59;;;;;;;7.90;5.07;;;16.50;66.50;;;;;;5032720;28;20468;-67
2021/10/09 12:29:27;;;;;;;10.23;4.87;;;16.40;66.60;;;;;;5032850;28;20982;-68
2021/10/09 12:31:54;;;;;;;11.07;5.57;;;16.40;67.20;;;;;;5032509;28;20478;-68
2021/10/09 12:34:29;;;;;;;6.20;5.00;;;16.50;68.20;;;;;;5027089;28;20465;-68
2021/10/09 12:37:14;;;;;;;14.33;10.03;;;16.50;67.60;;;;;;5012752;28;20479;-68
2021/10/09 12:39:43;;;;;;;10.10;4.90;;;16.50;69.20;;;;;;5012947;28;20469;-67
2021/10/09 12:42:11;;;;;;;16.17;12.63;;;16.60;65.20;;;;;;5012843;28;20991;-67
2021/10/09 12:44:38;;;;;;;12.33;8.23;;;16.60;73.20;;;;;;5019968;28;20469;-67
2021/10/09 12:47:05;;;;;;;9.03;6.03;;;16.70;67.10;;;;;;5012498;28;23700;-67
2021/10/09 12:49:32;;;;;;;16.10;9.53;;;16.80;66.30;;;;;;5013046;28;20560;-68
2021/10/09 12:51:59;;;;;;;13.17;11.70;;;16.90;72.20;;;;;;5012598;28;20469;-68
2021/10/09 12:54:27;;;;;;;6.10;4.37;;;17.00;70.40;;;;;;5012892;28;20468;-69
2021/10/09 12:56:56;;;;;;;7.80;5.40;;;16.90;64.00;;;;;;5011575;28;21007;-68
2021/10/09 12:59:23;;;;;;;6.67;5.77;;;17.00;64.00;;;;;;5010351;28;20469;-68
2021/10/09 13:01:50;;;;;;;11.00;4.70;;;16.90;66.30;;;;;;5011733;28;20481;-69
2021/10/09 13:04:17;;;;;;;13.77;6.30;;;17.00;64.40;;;;;;5012048;28;20457;-69
2021/10/09 13:06:43;;;;;;;8.20;5.80;;;16.90;66.50;;;;;;5012456;28;20471;-69
2021/10/09 13:09:12;;;;;;;7.33;6.37;;;17.00;68.20;;;;;;5012273;28;20465;-69
2021/10/09 13:11:46;;;;;;;8.30;5.67;;;17.00;66.30;;;;;;5012932;28;20465;-69
2021/10/09 13:14:14;;;;;;;11.13;5.67;;;17.00;65.20;;;;;;5012350;28;20549;-69
2021/10/09 13:16:41;;;;;;;8.17;7.27;;;17.00;66.90;;;;;;5012156;28;20535;-69
2021/10/09 13:19:08;;;;;;;10.03;6.20;;;17.10;69.20;;;;;;5012162;28;20818;-69
2021/10/09 13:21:35;;;;;;;24.43;15.30;;;17.10;68.10;;;;;;5012797;28;20476;-70
2021/10/09 13:24:02;;;;;;;18.30;14.20;;;17.10;69.50;;;;;;5012077;28;20789;-68
2021/10/09 13:26:30;;;;;;;9.93;8.60;;;17.20;71.80;;;;;;5012476;28;20544;-68
2021/10/09 13:28:57;;;;;;;6.70;5.57;;;17.20;69.10;;;;;;5012262;28;20473;-68
2021/10/09 13:31:26;;;;;;;8.93;6.00;;;17.20;67.30;;;;;;5012260;28;20467;-68
2021/10/09 13:33:53;;;;;;;8.83;5.87;;;17.30;66.60;;;;;;5012094;28;20808;-68
2021/10/09 13:36:21;;;;;;;8.80;6.53;;;17.30;67.20;;;;;;5012638;28;20535;-69
2021/10/09 13:38:48;;;;;;;13.27;10.53;;;17.30;67.70;;;;;;5012251;28;20970;-69
2021/10/09 13:41:15;;;;;;;5.50;4.67;;;17.30;71.50;;;;;;5012191;28;21292;-68
2021/10/09 13:43:43;;;;;;;6.57;5.17;;;17.30;65.20;;;;;;5012503;28;20487;-68
2021/10/09 13:46:10;;;;;;;6.50;5.00;;;17.40;65.40;;;;;;5011922;28;20465;-69
2021/10/09 13:48:38;;;;;;;5.83;4.23;;;17.30;62.80;;;;;;5012327;28;20518;-69
2021/10/09 13:51:12;;;;;;;6.00;4.40;;;17.20;62.80;;;;;;5012161;28;20908;-68
2021/10/09 13:53:39;;;;;;;4.73;4.33;;;17.30;65.80;;;;;;5012269;28;20465;-68
2021/10/09 13:56:06;;;;;;;5.73;3.90;;;17.30;63.30;;;;;;5011821;28;20481;-68
2021/10/09 13:58:32;;;;;;;6.80;5.30;;;17.30;62.90;;;;;;5012114;28;20465;-69
2021/10/09 14:00:59;;;;;;;5.90;5.30;;;17.30;65.20;;;;;;5011788;28;20475;-68
2021/10/09 14:03:27;;;;;;;4.73;4.23;;;17.30;63.90;;;;;;5012054;28;20789;-68
2021/10/09 14:05:56;;;;;;;4.67;3.90;;;17.30;62.60;;;;;;5011915;28;20990;-68
2021/10/09 14:08:22;;;;;;;8.30;4.50;;;17.30;62.00;;;;;;4992731;28;20474;-69
2021/10/09 14:10:49;;;;;;;9.20;4.80;;;17.30;63.70;;;;;;4992469;28;20472;-68
2021/10/09 14:13:17;;;;;;;5.70;3.93;;;17.30;63.20;;;;;;4992291;28;20472;-67
2021/10/09 14:15:44;;;;;;;6.00;4.07;;;17.30;61.70;;;;;;4992498;28;20488;-67
2021/10/09 14:18:11;;;;;;;3.20;2.90;;;17.30;63.10;;;;;;4991994;28;20473;-68
2021/10/09 14:20:38;;;;;;;9.60;6.60;;;17.30;61.30;;;;;;4995606;28;20505;-69
2021/10/09 14:23:08;;;;;;;5.60;4.43;;;17.30;68.00;;;;;;4995511;28;20474;-69
2021/10/09 14:25:35;;;;;;;3.83;3.50;;;17.30;63.90;;;;;;4995923;28;20476;-66
2021/10/09 14:28:03;;;;;;;9.07;5.80;;;17.40;61.10;;;;;;4995637;28;20496;-69
2021/10/09 14:30:30;;;;;;;4.30;3.83;;;17.30;65.40;;;;;;4995703;28;20552;-69
2021/10/09 14:32:57;;;;;;;5.40;4.30;;;17.30;61.30;;;;;;4995512;28;20548;-69
2021/10/09 14:35:25;;;;;;;4.30;3.90;;;17.30;62.60;;;;;;4996158;28;20527;-69
2021/10/09 14:37:51;;;;;;;6.23;5.13;;;17.30;60.90;;;;;;4995755;28;20492;-69